Time;durP1;ratioP1;P1;durP2;ratioP2;P2;SDS_P1;SDS_P2;PMS_P1;PMS_P2;Temp;Humidity;BMP_temperature;BMP_pressure;BME280_temperature;BME280_humidity;BME280_pressure;Samples;Min_cycle;Max_cycle;Signal;HPM_P1;HPM_P2
2023/12/22 00:03:49;;;;;;;38.40;34.30;;;5.60;83.70;;;;;;12505524;28;20041;-75
2023/12/22 00:09:51;;;;;;;38.53;33.33;;;5.70;83.80;;;;;;12505444;28;20033;-75
2023/12/22 00:15:54;;;;;;;43.13;38.65;;;5.80;84.20;;;;;;12505099;28;20037;-75
2023/12/22 00:22:03;;;;;;;51.83;46.40;;;5.90;84.70;;;;;;12487338;28;20354;-75
2023/12/22 00:28:05;;;;;;;39.03;34.03;;;5.80;84.40;;;;;;12487299;28;20041;-75
2023/12/22 00:34:06;;;;;;;42.00;37.88;;;5.70;84.00;;;;;;12504584;28;20033;-75
2023/12/22 00:40:09;;;;;;;39.17;34.88;;;5.70;84.50;;;;;;12504466;28;20231;-75
2023/12/22 00:46:10;;;;;;;39.00;31.98;;;5.70;84.60;;;;;;12503306;28;20320;-75
2023/12/22 00:52:12;;;;;;;41.10;33.08;;;5.70;84.70;;;;;;12504152;28;20034;-75
2023/12/22 00:58:13;;;;;;;47.13;41.33;;;5.90;84.50;;;;;;12503989;28;20041;-75
2023/12/22 01:04:15;;;;;;;47.33;42.50;;;6.10;84.50;;;;;;12487052;28;20080;-75
2023/12/22 01:10:17;;;;;;;40.92;36.55;;;6.20;84.30;;;;;;12503753;28;20034;-75
2023/12/22 01:16:21;;;;;;;32.38;28.15;;;6.00;84.20;;;;;;12519043;28;20048;-75
2023/12/22 01:22:23;;;;;;;36.83;32.90;;;5.70;84.40;;;;;;12503433;28;20033;-72
2023/12/22 01:28:24;;;;;;;32.95;29.48;;;5.70;84.50;;;;;;12503376;28;20029;-72
2023/12/22 01:34:26;;;;;;;49.50;45.13;;;5.40;84.20;;;;;;12503251;28;20034;-72
2023/12/22 01:40:27;;;;;;;40.70;37.38;;;5.50;84.70;;;;;;12511136;28;20030;-72
2023/12/22 01:46:29;;;;;;;30.77;25.90;;;5.60;84.60;;;;;;12511892;28;20036;-72
2023/12/22 01:52:31;;;;;;;53.67;48.88;;;5.80;84.80;;;;;;12511629;28;20033;-72
2023/12/22 01:58:34;;;;;;;35.47;31.92;;;5.60;83.80;;;;;;12493616;28;20037;-72
2023/12/22 02:04:45;;;;;;;41.15;37.00;;;5.20;84.20;;;;;;12527662;28;20052;-73
2023/12/22 02:10:46;;;;;;;37.08;33.08;;;5.50;85.10;;;;;;12510659;28;20041;-73
2023/12/22 02:16:57;;;;;;;36.63;32.83;;;5.60;84.70;;;;;;12510444;28;20040;-73
2023/12/22 02:22:59;;;;;;;57.33;53.13;;;5.80;84.70;;;;;;12492477;28;20331;-73
2023/12/22 02:29:01;;;;;;;48.47;41.60;;;6.00;84.60;;;;;;12509896;28;20025;-72
2023/12/22 02:35:11;;;;;;;41.38;37.15;;;5.70;83.90;;;;;;12492025;28;20461;-72
2023/12/22 02:41:13;;;;;;;41.28;36.97;;;5.20;83.60;;;;;;12491532;28;20045;-73
2023/12/22 02:47:15;;;;;;;28.63;25.52;;;5.20;83.90;;;;;;12508192;28;20438;-72
2023/12/22 02:53:16;;;;;;;30.80;27.60;;;5.30;84.10;;;;;;12491132;28;20036;-73
2023/12/22 02:59:18;;;;;;;28.00;25.00;;;5.20;83.90;;;;;;12508412;28;20263;-72
2023/12/22 03:05:20;;;;;;;27.50;23.85;;;5.30;84.70;;;;;;12508236;28;20029;-72
2023/12/22 03:11:21;;;;;;;28.98;19.35;;;5.70;85.20;;;;;;12508007;28;20038;-72
2023/12/22 03:17:23;;;;;;;36.97;33.47;;;5.60;82.80;;;;;;12490160;28;20029;-72
2023/12/22 03:23:24;;;;;;;36.78;33.55;;;5.40;84.60;;;;;;12507336;28;20042;-72
2023/12/22 03:29:26;;;;;;;38.42;35.13;;;5.40;84.20;;;;;;12507020;28;20339;-72
2023/12/22 03:35:27;;;;;;;29.15;26.27;;;5.40;84.90;;;;;;12489635;28;20056;-72
2023/12/22 03:41:29;;;;;;;27.90;25.10;;;5.60;85.40;;;;;;12488895;28;20040;-72
2023/12/22 03:47:30;;;;;;;33.30;30.38;;;5.40;85.00;;;;;;12488624;28;20033;-73
2023/12/22 03:53:32;;;;;;;35.95;33.20;;;5.30;85.10;;;;;;12488432;28;20034;-75
2023/12/22 03:59:33;;;;;;;52.30;48.95;;;5.20;85.30;;;;;;12505397;28;20033;-75
2023/12/22 04:05:35;;;;;;;38.22;35.13;;;5.20;85.00;;;;;;12505548;28;20026;-75
2023/12/22 04:11:37;;;;;;;19.45;17.58;;;5.20;85.10;;;;;;12487559;28;20056;-75
2023/12/22 04:17:39;;;;;;;60.80;57.05;;;5.20;84.90;;;;;;12487334;28;20029;-75
2023/12/22 04:23:40;;;;;;;53.38;49.30;;;5.30;85.30;;;;;;12504667;28;20037;-72
2023/12/22 04:29:42;;;;;;;33.00;29.88;;;5.50;85.20;;;;;;12487050;28;20037;-73
2023/12/22 04:35:43;;;;;;;32.17;28.90;;;5.90;85.30;;;;;;12486833;28;20366;-72
2023/12/22 04:41:45;;;;;;;29.02;26.35;;;6.00;84.80;;;;;;12486595;28;20033;-73
2023/12/22 04:47:46;;;;;;;26.60;23.95;;;6.10;85.20;;;;;;12486686;28;20036;-72
2023/12/22 04:53:48;;;;;;;37.72;34.38;;;6.10;85.60;;;;;;12486757;28;20041;-72
2023/12/22 04:59:49;;;;;;;44.95;41.65;;;6.30;85.20;;;;;;12503992;28;20044;-72
2023/12/22 05:05:51;;;;;;;25.30;22.65;;;6.20;84.60;;;;;;12503958;28;20346;-72
2023/12/22 05:11:52;;;;;;;33.05;30.00;;;6.10;84.40;;;;;;12506664;28;20045;-72
2023/12/22 05:17:54;;;;;;;69.05;65.10;;;6.00;84.60;;;;;;12513258;28;20334;-73
2023/12/22 05:23:56;;;;;;;26.75;24.25;;;5.90;84.90;;;;;;12513029;28;20430;-72
2023/12/22 05:30:01;;;;;;;28.17;24.42;;;5.50;80.70;;;;;;12512703;28;20033;-72
2023/12/22 05:36:03;;;;;;;66.90;62.88;;;5.40;84.60;;;;;;12494836;28;20041;-72
2023/12/22 05:42:05;;;;;;;24.98;22.38;;;5.70;83.30;;;;;;12512140;28;20041;-73
2023/12/22 05:48:07;;;;;;;21.95;19.02;;;5.70;84.40;;;;;;12511820;28;20033;-73
2023/12/22 05:54:10;;;;;;;26.65;22.58;;;6.00;84.40;;;;;;12494599;28;20041;-72
2023/12/22 06:00:14;;;;;;;31.58;28.60;;;5.60;81.10;;;;;;12510951;28;20036;-72
2023/12/22 06:06:18;;;;;;;31.08;28.02;;;5.00;82.20;;;;;;12511034;28;20343;-72
2023/12/22 06:12:25;;;;;;;56.28;52.22;;;4.50;81.10;;;;;;12510735;28;20037;-72
2023/12/22 06:18:27;;;;;;;50.80;46.58;;;4.20;82.60;;;;;;12492915;28;20038;-72
2023/12/22 06:24:28;;;;;;;34.88;30.23;;;4.10;81.90;;;;;;12508904;28;20048;-72
2023/12/22 06:30:30;;;;;;;34.63;31.13;;;3.90;83.40;;;;;;12492417;28;20040;-72
2023/12/22 06:36:34;;;;;;;60.55;54.65;;;4.10;84.20;;;;;;12476007;28;20052;-73
2023/12/22 06:42:35;;;;;;;45.78;41.08;;;4.70;84.50;;;;;;12509092;28;20442;-73
2023/12/22 06:48:37;;;;;;;32.30;28.90;;;5.60;85.00;;;;;;12475009;28;20042;-73
2023/12/22 06:54:39;;;;;;;59.25;54.78;;;5.90;84.70;;;;;;12491274;28;20029;-73
2023/12/22 07:00:41;;;;;;;37.95;33.60;;;6.20;85.80;;;;;;12612994;22;20449;-73
2023/12/22 07:07:30;;;;;;;74.30;69.40;;;6.20;83.80;;;;;;12618777;28;20460;-72
2023/12/22 07:13:32;;;;;;;65.80;61.28;;;5.40;79.80;;;;;;12659545;27;20028;-72
2023/12/22 07:19:35;;;;;;;35.40;32.33;;;4.60;83.70;;;;;;12655112;28;20032;-73
2023/12/22 07:25:39;;;;;;;55.35;50.92;;;4.80;84.50;;;;;;12655124;28;20016;-73
2023/12/22 07:31:41;;;;;;;32.35;29.00;;;5.00;84.70;;;;;;12655803;28;20027;-73
2023/12/22 07:37:42;;;;;;;33.92;30.38;;;5.20;84.30;;;;;;12655329;28;20330;-73
2023/12/22 07:43:44;;;;;;;35.13;26.23;;;5.60;85.10;;;;;;12654564;28;20046;-73
2023/12/22 07:49:49;;;;;;;40.70;36.47;;;5.90;84.40;;;;;;12654626;28;20041;-73
2023/12/22 07:55:51;;;;;;;109.88;103.60;;;6.20;84.10;;;;;;12655288;28;20035;-73
2023/12/22 08:01:54;;;;;;;43.42;39.42;;;6.70;84.20;;;;;;12655240;28;20028;-73
2023/12/22 08:07:56;;;;;;;43.22;39.15;;;6.90;83.50;;;;;;12654975;28;20024;-73
2023/12/22 08:13:58;;;;;;;45.55;41.33;;;6.40;83.50;;;;;;12654168;28;20440;-73
2023/12/22 08:20:00;;;;;;;51.90;47.15;;;6.50;84.50;;;;;;12653550;28;20352;-73
2023/12/22 08:26:02;;;;;;;45.35;41.38;;;6.40;83.60;;;;;;12654349;28;20352;-73
2023/12/22 08:32:04;;;;;;;44.45;39.63;;;6.10;84.10;;;;;;12653019;28;20028;-72
2023/12/22 08:38:05;;;;;;;32.60;29.25;;;5.90;84.10;;;;;;12653946;28;20031;-72
2023/12/22 08:44:08;;;;;;;83.57;78.22;;;6.20;84.40;;;;;;12653936;28;20059;-72
2023/12/22 08:50:12;;;;;;;94.90;88.72;;;6.20;84.50;;;;;;12662575;28;20039;-72
2023/12/22 08:56:14;;;;;;;116.72;109.88;;;6.70;85.50;;;;;;12662632;28;20039;-72
2023/12/22 09:02:16;;;;;;;48.95;44.53;;;6.80;85.60;;;;;;12663476;28;20062;-71
2023/12/22 09:08:18;;;;;;;131.73;123.75;;;7.00;85.80;;;;;;12663366;28;20020;-72
2023/12/22 09:14:20;;;;;;;156.63;148.10;;;7.20;85.70;;;;;;12663089;28;20034;-72
2023/12/22 09:20:22;;;;;;;163.18;154.35;;;7.40;85.70;;;;;;12661520;28;20039;-71
2023/12/22 09:26:24;;;;;;;184.95;175.57;;;7.30;85.40;;;;;;12662448;28;20344;-71
2023/12/22 09:32:26;;;;;;;168.73;159.88;;;7.30;85.40;;;;;;12660829;28;20039;-72
2023/12/22 09:38:29;;;;;;;82.75;76.13;;;7.20;85.90;;;;;;12661971;28;20035;-72
2023/12/22 09:44:33;;;;;;;173.02;163.55;;;7.20;85.90;;;;;;12660191;28;20376;-72
2023/12/22 09:50:37;;;;;;;78.90;73.10;;;7.20;85.80;;;;;;12661464;28;20032;-71
2023/12/22 09:56:42;;;;;;;82.20;76.97;;;7.20;86.20;;;;;;12659834;28;20452;-72
2023/12/22 10:02:48;;;;;;;179.77;170.23;;;7.40;86.90;;;;;;12658252;28;20356;-71
2023/12/22 10:08:52;;;;;;;126.80;119.57;;;7.60;86.60;;;;;;12658275;28;20024;-72
2023/12/22 10:14:55;;;;;;;194.25;184.48;;;7.60;86.50;;;;;;12658999;28;20036;-72
2023/12/22 10:20:56;;;;;;;206.82;196.95;;;7.70;86.70;;;;;;12659858;28;20036;-71
2023/12/22 10:26:58;;;;;;;196.18;186.55;;;7.90;86.60;;;;;;12658351;28;20035;-71
2023/12/22 10:33:04;;;;;;;222.57;211.45;;;7.90;86.80;;;;;;12652667;28;20040;-71
2023/12/22 10:39:07;;;;;;;138.23;131.20;;;8.00;86.60;;;;;;12609382;28;20044;-71
2023/12/22 10:45:09;;;;;;;76.00;70.97;;;8.30;86.50;;;;;;12658785;28;20032;-71
2023/12/22 10:51:11;;;;;;;104.47;97.72;;;8.30;85.50;;;;;;12657382;28;20032;-71
2023/12/22 10:57:13;;;;;;;112.80;105.72;;;8.50;86.20;;;;;;12657781;28;20036;-71
2023/12/22 11:03:21;;;;;;;31.15;27.65;;;8.70;85.90;;;;;;12657883;28;20024;-71
2023/12/22 11:09:26;;;;;;;47.92;35.15;;;8.80;85.90;;;;;;12656881;28;20028;-71
2023/12/22 11:15:28;;;;;;;31.23;26.90;;;9.10;85.70;;;;;;12657324;28;20028;-71
2023/12/22 11:21:30;;;;;;;27.80;22.77;;;9.40;85.50;;;;;;12655752;28;20032;-71
2023/12/22 11:27:35;;;;;;;26.60;23.42;;;9.60;85.40;;;;;;12656812;28;20424;-72
2023/12/22 11:33:37;;;;;;;28.38;20.80;;;9.70;85.00;;;;;;12656456;28;20032;-71
2023/12/22 11:39:47;;;;;;;23.73;19.75;;;9.80;84.70;;;;;;12656255;28;20032;-71
2023/12/22 11:45:49;;;;;;;21.08;18.85;;;10.00;84.60;;;;;;12655621;28;20365;-71
2023/12/22 11:51:51;;;;;;;21.60;18.50;;;10.10;84.40;;;;;;12654321;28;20036;-72
2023/12/22 11:57:53;;;;;;;24.92;22.35;;;10.20;84.60;;;;;;12655469;28;20043;-71
2023/12/22 12:04:03;;;;;;;29.92;21.55;;;10.30;84.70;;;;;;12648312;28;20028;-71
2023/12/22 12:10:06;;;;;;;24.05;19.33;;;10.40;84.60;;;;;;12685509;28;20023;-71
2023/12/22 12:16:08;;;;;;;24.10;21.42;;;10.50;84.60;;;;;;12663178;28;20468;-71
2023/12/22 12:22:13;;;;;;;21.60;19.50;;;10.50;84.90;;;;;;12650117;28;20043;-71
2023/12/22 12:28:18;;;;;;;28.38;23.55;;;10.50;85.20;;;;;;12652933;28;20333;-71
2023/12/22 12:34:23;;;;;;;25.85;22.02;;;10.60;85.40;;;;;;12653047;28;20467;-71
2023/12/22 12:40:26;;;;;;;31.13;27.80;;;10.60;85.20;;;;;;12653667;28;20035;-72
2023/12/22 12:46:35;;;;;;;18.90;16.45;;;10.70;85.00;;;;;;12653014;28;20035;-71
2023/12/22 12:52:37;;;;;;;27.23;24.10;;;10.70;84.90;;;;;;12652970;28;20032;-71
2023/12/22 12:58:41;;;;;;;19.48;16.25;;;10.60;85.10;;;;;;12650334;28;20356;-71
2023/12/22 13:04:42;;;;;;;26.60;23.92;;;10.70;85.10;;;;;;12640465;28;20033;-72
2023/12/22 13:10:44;;;;;;;29.80;26.70;;;10.80;85.00;;;;;;12650677;28;20044;-71
2023/12/22 13:16:46;;;;;;;29.85;26.23;;;10.90;84.80;;;;;;12635926;28;20036;-72
2023/12/22 13:22:48;;;;;;;30.05;26.73;;;11.00;84.80;;;;;;12647198;28;20341;-71
2023/12/22 13:28:57;;;;;;;31.35;25.45;;;11.10;84.80;;;;;;12648972;28;20028;-71
2023/12/22 13:34:59;;;;;;;23.65;20.55;;;11.10;84.80;;;;;;12658482;28;20356;-71
2023/12/22 13:41:04;;;;;;;29.45;25.52;;;11.10;84.30;;;;;;12662591;28;20028;-71
2023/12/22 13:47:06;;;;;;;27.80;24.92;;;11.10;85.40;;;;;;12661866;28;20039;-71
2023/12/22 13:53:09;;;;;;;26.67;23.80;;;11.20;85.50;;;;;;12662681;28;20025;-71
2023/12/22 13:59:11;;;;;;;31.30;27.20;;;11.30;85.30;;;;;;12660821;28;20478;-72
2023/12/22 14:05:12;;;;;;;29.80;26.58;;;11.40;85.40;;;;;;12660422;28;20059;-71
2023/12/22 14:11:15;;;;;;;30.23;27.05;;;11.00;84.70;;;;;;12658619;28;20028;-71
2023/12/22 14:17:17;;;;;;;32.58;27.42;;;10.80;85.70;;;;;;12660392;28;20028;-72
2023/12/22 14:23:18;;;;;;;34.38;29.38;;;11.00;86.20;;;;;;12659038;28;20047;-70
2023/12/22 14:29:22;;;;;;;30.88;22.67;;;11.60;85.60;;;;;;12659827;28;20020;-71
2023/12/22 14:35:24;;;;;;;32.20;28.23;;;11.90;84.60;;;;;;12660071;28;20332;-71
2023/12/22 14:41:25;;;;;;;32.83;27.42;;;11.80;85.40;;;;;;12659009;28;20040;-71
2023/12/22 14:47:27;;;;;;;34.97;30.63;;;11.50;85.80;;;;;;12656580;28;20035;-73
2023/12/22 14:53:29;;;;;;;29.98;25.77;;;11.20;86.40;;;;;;12658578;28;20035;-72
2023/12/22 14:59:31;;;;;;;30.92;27.55;;;11.10;86.90;;;;;;12656551;22;20044;-72
2023/12/22 15:05:32;;;;;;;32.63;29.30;;;10.80;86.90;;;;;;12657774;28;20036;-73
2023/12/22 15:11:40;;;;;;;33.85;30.17;;;10.60;87.50;;;;;;12639389;28;20040;-73
2023/12/22 15:17:41;;;;;;;33.55;28.90;;;10.50;87.50;;;;;;12639276;28;20039;-71
2023/12/22 15:23:43;;;;;;;33.70;30.13;;;10.40;87.60;;;;;;12656934;28;20032;-71
2023/12/22 15:29:47;;;;;;;36.08;31.48;;;10.30;88.00;;;;;;12623230;28;20062;-71
2023/12/22 15:35:54;;;;;;;30.40;25.95;;;10.20;87.90;;;;;;12656053;28;20032;-71
2023/12/22 15:41:56;;;;;;;34.03;30.48;;;10.10;88.00;;;;;;12656007;28;20364;-71
2023/12/22 15:47:58;;;;;;;36.22;28.42;;;9.90;88.10;;;;;;12655865;28;20020;-70
2023/12/22 15:53:59;;;;;;;37.13;32.85;;;9.80;88.10;;;;;;12637286;28;20035;-71
2023/12/22 16:00:01;;;;;;;39.10;33.20;;;9.90;88.50;;;;;;12655287;28;20027;-71
2023/12/22 16:06:11;;;;;;;45.40;40.50;;;9.80;87.60;;;;;;12655188;28;20058;-71
2023/12/22 16:12:13;;;;;;;40.63;36.47;;;9.70;88.20;;;;;;12637073;28;20043;-71
2023/12/22 16:18:14;;;;;;;45.40;41.25;;;9.80;88.00;;;;;;12636726;28;20044;-72
2023/12/22 16:24:16;;;;;;;50.10;45.47;;;9.50;88.00;;;;;;12636456;28;20028;-71
2023/12/22 16:30:18;;;;;;;41.65;36.28;;;9.50;88.10;;;;;;12654967;28;20024;-72
2023/12/22 16:36:20;;;;;;;48.05;43.22;;;9.60;88.00;;;;;;12654017;28;20032;-72
2023/12/22 16:42:24;;;;;;;47.78;43.13;;;9.50;87.80;;;;;;12635865;28;20040;-71
2023/12/22 16:48:25;;;;;;;60.28;54.47;;;9.40;87.60;;;;;;12653860;28;20035;-72
2023/12/22 16:54:27;;;;;;;56.05;50.20;;;9.60;87.70;;;;;;12653640;28;20032;-72
2023/12/22 17:00:28;;;;;;;47.42;42.03;;;9.50;87.40;;;;;;12635706;28;20036;-72
2023/12/22 17:06:30;;;;;;;49.92;42.47;;;9.60;87.60;;;;;;12653937;28;20028;-72
2023/12/22 17:12:31;;;;;;;45.58;38.00;;;9.70;87.30;;;;;;12631351;28;20356;-72
2023/12/22 17:18:35;;;;;;;42.95;35.28;;;9.70;87.40;;;;;;12613942;28;20032;-72
2023/12/22 17:24:42;;;;;;;51.38;46.00;;;9.70;87.10;;;;;;12608067;28;20024;-72
2023/12/22 17:30:44;;;;;;;49.53;40.28;;;9.50;87.10;;;;;;12627766;28;20035;-72
2023/12/22 17:36:47;;;;;;;55.47;49.65;;;9.60;87.00;;;;;;12611817;28;20024;-72
2023/12/22 17:42:50;;;;;;;44.78;39.65;;;9.50;87.00;;;;;;12611431;28;20334;-72
2023/12/22 17:48:51;;;;;;;40.33;35.17;;;9.50;87.10;;;;;;12611304;28;20035;-72
2023/12/22 17:54:56;;;;;;;61.40;56.30;;;9.40;86.90;;;;;;12593023;28;20036;-72
2023/12/22 18:01:10;;;;;;;74.00;68.15;;;9.30;87.10;;;;;;12610715;28;20468;-72
2023/12/22 18:07:12;;;;;;;68.32;62.85;;;9.40;87.20;;;;;;12610402;28;20036;-72
2023/12/22 18:13:15;;;;;;;73.80;68.28;;;9.30;86.80;;;;;;12610143;28;20028;-72
2023/12/22 18:19:34;;;;;;;135.13;127.38;;;9.30;87.10;;;;;;12609595;28;20441;-72
2023/12/22 18:25:39;;;;;;;69.53;63.78;;;8.90;86.70;;;;;;12625228;28;20037;-72
2023/12/22 18:31:41;;;;;;;137.23;128.38;;;9.00;87.00;;;;;;12574974;28;20055;-72
2023/12/22 18:37:42;;;;;;;143.13;134.50;;;9.00;86.70;;;;;;12574490;28;20033;-72
2023/12/22 18:43:44;;;;;;;117.72;109.60;;;9.10;86.50;;;;;;12608663;28;20349;-72
2023/12/22 18:49:46;;;;;;;80.03;73.93;;;8.90;86.20;;;;;;12608419;28;20031;-72
2023/12/22 18:55:48;;;;;;;155.57;146.43;;;8.60;85.80;;;;;;12607995;28;20044;-75
2023/12/22 19:01:49;;;;;;;94.05;86.97;;;8.70;86.60;;;;;;12607906;28;20032;-75
2023/12/22 19:07:51;;;;;;;81.13;74.70;;;8.60;86.40;;;;;;12607597;28;20029;-74
2023/12/22 19:14:07;;;;;;;151.23;140.95;;;8.50;86.10;;;;;;12589334;28;20037;-74
2023/12/22 19:20:10;;;;;;;156.68;147.02;;;8.30;86.70;;;;;;12607026;28;20032;-75
2023/12/22 19:26:12;;;;;;;75.22;69.07;;;8.30;86.50;;;;;;12606579;28;20025;-74
2023/12/22 19:32:22;;;;;;;99.00;90.05;;;8.20;86.80;;;;;;12605744;28;20032;-74
2023/12/22 19:38:23;;;;;;;95.18;87.55;;;8.10;86.70;;;;;;12605095;28;20041;-74
2023/12/22 19:44:25;;;;;;;94.32;87.43;;;8.40;86.50;;;;;;12605665;28;20028;-74
2023/12/22 19:50:28;;;;;;;88.68;82.10;;;8.40;86.00;;;;;;12605526;28;20032;-74
2023/12/22 19:56:30;;;;;;;82.38;76.05;;;8.10;86.10;;;;;;12606012;28;20040;-74
2023/12/22 20:02:33;;;;;;;92.30;85.75;;;7.90;86.50;;;;;;12620761;28;20032;-74
2023/12/22 20:08:35;;;;;;;88.15;80.85;;;7.90;86.20;;;;;;12620570;28;20028;-75
2023/12/22 20:14:36;;;;;;;164.00;153.65;;;7.90;86.50;;;;;;12620276;28;20048;-75
2023/12/22 20:20:38;;;;;;;78.00;70.93;;;7.70;86.00;;;;;;12604602;28;20039;-75
2023/12/22 20:26:39;;;;;;;89.53;81.95;;;7.60;86.40;;;;;;12604169;28;20031;-74
2023/12/22 20:32:41;;;;;;;91.82;84.40;;;7.70;86.10;;;;;;12604137;28;20039;-74
2023/12/22 20:38:42;;;;;;;175.25;164.48;;;7.90;86.00;;;;;;12586094;28;20039;-74
2023/12/22 20:44:44;;;;;;;92.95;85.60;;;8.00;85.50;;;;;;12618402;28;20045;-74
2023/12/22 20:50:46;;;;;;;134.00;125.00;;;7.90;85.80;;;;;;12586067;28;20456;-74
2023/12/22 20:56:48;;;;;;;94.80;87.15;;;7.70;85.90;;;;;;12602556;28;20048;-75
2023/12/22 21:02:50;;;;;;;166.50;156.23;;;7.60;85.90;;;;;;12603338;28;20029;-75
2023/12/22 21:08:52;;;;;;;77.93;71.28;;;7.70;85.70;;;;;;12585197;28;20041;-75
2023/12/22 21:14:54;;;;;;;69.18;63.05;;;7.70;85.70;;;;;;12603154;28;20451;-75
2023/12/22 21:20:56;;;;;;;61.00;55.55;;;7.80;85.60;;;;;;12585334;28;20044;-75
2023/12/22 21:26:58;;;;;;;85.13;78.10;;;7.90;85.30;;;;;;12601612;28;20131;-75
2023/12/22 21:33:13;;;;;;;169.38;158.82;;;8.00;84.70;;;;;;12602693;28;20028;-75
2023/12/22 21:39:15;;;;;;;90.78;83.55;;;8.00;84.90;;;;;;12601789;28;20350;-74
2023/12/22 21:45:18;;;;;;;88.25;80.30;;;7.90;84.90;;;;;;12600986;28;20036;-74
2023/12/22 21:51:25;;;;;;;81.95;75.82;;;8.00;85.00;;;;;;12602306;28;20028;-74
2023/12/22 21:57:32;;;;;;;170.32;160.55;;;8.10;84.90;;;;;;12610311;28;20036;-74
2023/12/22 22:03:37;;;;;;;82.38;76.28;;;7.80;84.60;;;;;;12592951;28;20032;-74
2023/12/22 22:09:39;;;;;;;77.60;71.50;;;7.70;84.80;;;;;;12610651;28;20032;-74
2023/12/22 22:15:41;;;;;;;79.05;72.68;;;7.30;84.90;;;;;;12610332;28;20029;-74
2023/12/22 22:21:43;;;;;;;61.65;55.70;;;7.40;85.00;;;;;;12608787;28;20033;-74
2023/12/22 22:27:45;;;;;;;55.17;49.42;;;7.20;85.10;;;;;;12609779;28;20028;-74
2023/12/22 22:33:47;;;;;;;59.40;53.55;;;7.30;85.00;;;;;;12625112;28;20037;-75
2023/12/22 22:39:48;;;;;;;51.70;46.90;;;7.20;84.80;;;;;;12609872;28;20025;-74
2023/12/22 22:45:50;;;;;;;69.72;63.83;;;7.30;84.70;;;;;;12608789;28;20028;-75
2023/12/22 22:52:05;;;;;;;61.40;52.42;;;7.20;84.40;;;;;;12608574;28;20024;-74
2023/12/22 22:58:07;;;;;;;60.38;52.97;;;7.00;84.40;;;;;;12614432;22;20041;-74
2023/12/22 23:04:31;;;;;;;113.70;106.38;;;7.10;84.50;;;;;;12631907;28;20055;-74
2023/12/22 23:10:33;;;;;;;57.33;51.83;;;7.10;84.10;;;;;;12657943;28;20436;-75
2023/12/22 23:16:35;;;;;;;47.75;42.53;;;6.60;84.40;;;;;;12639694;28;20032;-75
2023/12/22 23:22:37;;;;;;;53.67;47.42;;;6.50;84.80;;;;;;12657310;28;20356;-74
2023/12/22 23:28:40;;;;;;;59.30;49.03;;;6.30;84.90;;;;;;12657059;28;20024;-74
2023/12/22 23:34:44;;;;;;;49.47;44.20;;;6.30;85.30;;;;;;12656781;28;20055;-74
2023/12/22 23:40:46;;;;;;;47.85;42.35;;;6.20;85.10;;;;;;12638613;28;20440;-74
2023/12/22 23:46:48;;;;;;;45.42;36.38;;;6.20;85.60;;;;;;12656207;28;20035;-75
2023/12/22 23:53:18;;;;;;;53.97;46.13;;;6.20;85.20;;;;;;12656041;28;20047;-74
2023/12/22 23:59:20;;;;;;;55.72;46.08;;;6.10;85.60;;;;;;12656510;28;20031;-75
